sensor_id;sensor_type;location;lat;lon;timestamp;P1;durP1;ratioP1;P2;durP2;ratioP2
52029;SDS011;38043;53.224;6.580;2023-07-30T00:02:21;25.02;;;6.72;;
52029;SDS011;38043;53.224;6.580;2023-07-30T00:04:46;22.88;;;6.55;;
52029;SDS011;38043;53.224;6.580;2023-07-30T00:07:13;19.52;;;7.22;;
52029;SDS011;38043;53.224;6.580;2023-07-30T00:09:39;25.13;;;8.65;;
52029;SDS011;38043;53.224;6.580;2023-07-30T00:12:05;24.05;;;8.38;;
52029;SDS011;38043;53.224;6.580;2023-07-30T00:14:35;24.40;;;7.32;;
52029;SDS011;38043;53.224;6.580;2023-07-30T00:17:01;21.20;;;7.32;;
52029;SDS011;38043;53.224;6.580;2023-07-30T00:19:27;23.98;;;7.25;;
52029;SDS011;38043;53.224;6.580;2023-07-30T00:21:53;29.42;;;7.35;;
52029;SDS011;38043;53.224;6.580;2023-07-30T00:24:19;26.52;;;7.05;;
52029;SDS011;38043;53.224;6.580;2023-07-30T00:26:45;36.33;;;7.63;;
52029;SDS011;38043;53.224;6.580;2023-07-30T00:29:10;26.02;;;6.47;;
52029;SDS011;38043;53.224;6.580;2023-07-30T00:31:37;18.40;;;6.38;;
52029;SDS011;38043;53.224;6.580;2023-07-30T00:34:03;23.30;;;7.18;;
52029;SDS011;38043;53.224;6.580;2023-07-30T00:36:28;27.27;;;6.72;;
52029;SDS011;38043;53.224;6.580;2023-07-30T00:38:54;26.23;;;7.13;;
52029;SDS011;38043;53.224;6.580;2023-07-30T00:41:19;27.77;;;6.35;;
52029;SDS011;38043;53.224;6.580;2023-07-30T00:43:45;23.48;;;6.72;;
52029;SDS011;38043;53.224;6.580;2023-07-30T00:46:11;24.25;;;6.72;;
52029;SDS011;38043;53.224;6.580;2023-07-30T00:48:37;21.17;;;7.10;;
52029;SDS011;38043;53.224;6.580;2023-07-30T00:51:03;33.35;;;6.75;;
52029;SDS011;38043;53.224;6.580;2023-07-30T00:53:29;26.42;;;8.27;;
52029;SDS011;38043;53.224;6.580;2023-07-30T00:55:56;22.27;;;7.70;;
52029;SDS011;38043;53.224;6.580;2023-07-30T00:58:22;24.83;;;7.68;;
52029;SDS011;38043;53.224;6.580;2023-07-30T01:00:48;22.20;;;6.68;;
52029;SDS011;38043;53.224;6.580;2023-07-30T01:03:19;20.83;;;6.45;;
52029;SDS011;38043;53.224;6.580;2023-07-30T01:05:45;20.67;;;6.78;;
52029;SDS011;38043;53.224;6.580;2023-07-30T01:08:11;20.70;;;6.95;;
52029;SDS011;38043;53.224;6.580;2023-07-30T01:10:36;21.65;;;7.28;;
52029;SDS011;38043;53.224;6.580;2023-07-30T01:13:05;24.40;;;7.03;;
52029;SDS011;38043;53.224;6.580;2023-07-30T01:15:34;23.98;;;7.13;;
52029;SDS011;38043;53.224;6.580;2023-07-30T01:18:00;24.05;;;6.80;;
52029;SDS011;38043;53.224;6.580;2023-07-30T01:20:29;21.00;;;6.55;;
52029;SDS011;38043;53.224;6.580;2023-07-30T01:22:56;15.90;;;5.78;;
52029;SDS011;38043;53.224;6.580;2023-07-30T01:25:27;19.40;;;6.05;;
52029;SDS011;38043;53.224;6.580;2023-07-30T01:27:58;19.25;;;6.28;;
52029;SDS011;38043;53.224;6.580;2023-07-30T01:30:30;21.25;;;6.75;;
52029;SDS011;38043;53.224;6.580;2023-07-30T01:33:02;18.15;;;6.60;;
52029;SDS011;38043;53.224;6.580;2023-07-30T01:35:30;20.65;;;6.22;;
52029;SDS011;38043;53.224;6.580;2023-07-30T01:37:57;18.88;;;6.68;;
52029;SDS011;38043;53.224;6.580;2023-07-30T01:40:23;24.30;;;7.72;;
52029;SDS011;38043;53.224;6.580;2023-07-30T01:42:49;24.10;;;6.35;;
52029;SDS011;38043;53.224;6.580;2023-07-30T01:45:15;19.75;;;6.43;;
52029;SDS011;38043;53.224;6.580;2023-07-30T01:47:41;17.90;;;6.43;;
52029;SDS011;38043;53.224;6.580;2023-07-30T01:50:07;29.33;;;6.95;;
52029;SDS011;38043;53.224;6.580;2023-07-30T01:52:33;26.27;;;6.78;;
52029;SDS011;38043;53.224;6.580;2023-07-30T01:54:59;20.20;;;6.47;;
52029;SDS011;38043;53.224;6.580;2023-07-30T01:57:26;21.63;;;6.75;;
52029;SDS011;38043;53.224;6.580;2023-07-30T01:59:52;22.98;;;7.22;;
52029;SDS011;38043;53.224;6.580;2023-07-30T02:02:17;21.55;;;5.93;;
52029;SDS011;38043;53.224;6.580;2023-07-30T02:04:43;22.50;;;5.75;;
52029;SDS011;38043;53.224;6.580;2023-07-30T02:07:09;20.70;;;6.85;;
52029;SDS011;38043;53.224;6.580;2023-07-30T02:09:34;26.10;;;6.93;;
52029;SDS011;38043;53.224;6.580;2023-07-30T02:12:00;18.90;;;6.22;;
52029;SDS011;38043;53.224;6.580;2023-07-30T02:14:26;23.30;;;6.78;;
52029;SDS011;38043;53.224;6.580;2023-07-30T02:16:51;27.00;;;6.63;;
52029;SDS011;38043;53.224;6.580;2023-07-30T02:19:17;20.75;;;6.78;;
52029;SDS011;38043;53.224;6.580;2023-07-30T02:21:43;23.52;;;6.07;;
52029;SDS011;38043;53.224;6.580;2023-07-30T02:24:09;22.67;;;6.45;;
52029;SDS011;38043;53.224;6.580;2023-07-30T02:26:37;26.48;;;6.75;;
52029;SDS011;38043;53.224;6.580;2023-07-30T02:29:03;20.60;;;5.93;;
52029;SDS011;38043;53.224;6.580;2023-07-30T02:31:29;30.10;;;7.15;;
52029;SDS011;38043;53.224;6.580;2023-07-30T02:33:55;23.00;;;6.68;;
52029;SDS011;38043;53.224;6.580;2023-07-30T02:36:21;21.45;;;7.03;;
52029;SDS011;38043;53.224;6.580;2023-07-30T02:38:49;21.75;;;5.95;;
52029;SDS011;38043;53.224;6.580;2023-07-30T02:41:15;22.30;;;5.97;;
52029;SDS011;38043;53.224;6.580;2023-07-30T02:43:41;34.50;;;6.28;;
52029;SDS011;38043;53.224;6.580;2023-07-30T02:46:06;23.92;;;6.40;;
52029;SDS011;38043;53.224;6.580;2023-07-30T02:48:32;25.38;;;6.10;;
52029;SDS011;38043;53.224;6.580;2023-07-30T02:50:58;24.30;;;6.45;;
52029;SDS011;38043;53.224;6.580;2023-07-30T02:53:24;30.95;;;6.95;;
52029;SDS011;38043;53.224;6.580;2023-07-30T02:55:49;23.48;;;6.20;;
52029;SDS011;38043;53.224;6.580;2023-07-30T02:58:15;26.50;;;7.13;;
52029;SDS011;38043;53.224;6.580;2023-07-30T03:00:40;26.35;;;5.85;;
52029;SDS011;38043;53.224;6.580;2023-07-30T03:03:06;20.60;;;6.18;;
52029;SDS011;38043;53.224;6.580;2023-07-30T03:05:32;23.67;;;5.82;;
52029;SDS011;38043;53.224;6.580;2023-07-30T03:07:57;26.98;;;6.43;;
52029;SDS011;38043;53.224;6.580;2023-07-30T03:10:23;30.77;;;7.47;;
52029;SDS011;38043;53.224;6.580;2023-07-30T03:12:49;25.30;;;5.85;;
52029;SDS011;38043;53.224;6.580;2023-07-30T03:15:14;21.80;;;6.35;;
52029;SDS011;38043;53.224;6.580;2023-07-30T03:17:40;23.98;;;5.75;;
52029;SDS011;38043;53.224;6.580;2023-07-30T03:20:06;23.90;;;5.32;;
52029;SDS011;38043;53.224;6.580;2023-07-30T03:22:32;17.70;;;5.60;;
52029;SDS011;38043;53.224;6.580;2023-07-30T03:24:57;20.83;;;5.78;;
52029;SDS011;38043;53.224;6.580;2023-07-30T03:27:23;27.38;;;6.18;;
52029;SDS011;38043;53.224;6.580;2023-07-30T03:29:49;23.52;;;6.00;;
52029;SDS011;38043;53.224;6.580;2023-07-30T03:32:14;31.13;;;6.18;;
52029;SDS011;38043;53.224;6.580;2023-07-30T03:34:40;21.10;;;6.18;;
52029;SDS011;38043;53.224;6.580;2023-07-30T03:37:06;24.42;;;6.15;;
52029;SDS011;38043;53.224;6.580;2023-07-30T03:39:31;33.75;;;6.53;;
52029;SDS011;38043;53.224;6.580;2023-07-30T03:41:57;33.08;;;7.97;;
52029;SDS011;38043;53.224;6.580;2023-07-30T03:44:23;24.13;;;5.50;;
52029;SDS011;38043;53.224;6.580;2023-07-30T03:46:48;22.10;;;5.75;;
52029;SDS011;38043;53.224;6.580;2023-07-30T03:49:14;26.95;;;5.82;;
52029;SDS011;38043;53.224;6.580;2023-07-30T03:51:39;21.55;;;5.00;;
52029;SDS011;38043;53.224;6.580;2023-07-30T03:54:05;24.80;;;5.95;;
52029;SDS011;38043;53.224;6.580;2023-07-30T03:56:31;25.98;;;5.72;;
52029;SDS011;38043;53.224;6.580;2023-07-30T03:58:56;18.70;;;5.88;;
52029;SDS011;38043;53.224;6.580;2023-07-30T04:01:22;26.25;;;5.50;;
52029;SDS011;38043;53.224;6.580;2023-07-30T04:03:48;26.48;;;5.80;;
52029;SDS011;38043;53.224;6.580;2023-07-30T04:06:13;25.40;;;5.70;;
52029;SDS011;38043;53.224;6.580;2023-07-30T04:08:39;23.17;;;6.20;;
52029;SDS011;38043;53.224;6.580;2023-07-30T04:11:05;25.20;;;6.45;;
52029;SDS011;38043;53.224;6.580;2023-07-30T04:13:31;24.67;;;4.88;;
52029;SDS011;38043;53.224;6.580;2023-07-30T04:15:56;25.98;;;6.13;;
52029;SDS011;38043;53.224;6.580;2023-07-30T04:18:22;22.52;;;5.80;;
52029;SDS011;38043;53.224;6.580;2023-07-30T04:20:48;28.58;;;6.70;;
52029;SDS011;38043;53.224;6.580;2023-07-30T04:23:14;21.05;;;5.70;;
52029;SDS011;38043;53.224;6.580;2023-07-30T04:25:39;25.48;;;5.80;;
52029;SDS011;38043;53.224;6.580;2023-07-30T04:28:05;25.55;;;5.85;;
52029;SDS011;38043;53.224;6.580;2023-07-30T04:30:31;32.83;;;6.53;;
52029;SDS011;38043;53.224;6.580;2023-07-30T04:32:57;21.65;;;5.32;;
52029;SDS011;38043;53.224;6.580;2023-07-30T04:35:23;27.30;;;5.53;;
52029;SDS011;38043;53.224;6.580;2023-07-30T04:37:49;20.83;;;6.28;;
52029;SDS011;38043;53.224;6.580;2023-07-30T04:40:14;22.33;;;6.13;;
52029;SDS011;38043;53.224;6.580;2023-07-30T04:42:41;30.02;;;5.85;;
52029;SDS011;38043;53.224;6.580;2023-07-30T04:45:07;28.55;;;6.35;;
52029;SDS011;38043;53.224;6.580;2023-07-30T04:47:33;21.13;;;6.40;;
52029;SDS011;38043;53.224;6.580;2023-07-30T04:49:59;20.45;;;5.82;;
52029;SDS011;38043;53.224;6.580;2023-07-30T04:52:24;28.60;;;5.53;;
52029;SDS011;38043;53.224;6.580;2023-07-30T04:54:50;26.67;;;5.57;;
52029;SDS011;38043;53.224;6.580;2023-07-30T04:57:18;21.50;;;5.18;;
52029;SDS011;38043;53.224;6.580;2023-07-30T05:02:09;22.23;;;5.05;;
52029;SDS011;38043;53.224;6.580;2023-07-30T05:04:35;27.38;;;6.25;;
52029;SDS011;38043;53.224;6.580;2023-07-30T05:07:00;25.23;;;6.72;;
52029;SDS011;38043;53.224;6.580;2023-07-30T05:09:26;18.83;;;5.60;;
52029;SDS011;38043;53.224;6.580;2023-07-30T05:11:52;21.15;;;5.43;;
52029;SDS011;38043;53.224;6.580;2023-07-30T05:14:17;16.63;;;5.35;;
52029;SDS011;38043;53.224;6.580;2023-07-30T05:16:43;21.45;;;4.57;;
52029;SDS011;38043;53.224;6.580;2023-07-30T05:19:08;23.73;;;5.65;;
52029;SDS011;38043;53.224;6.580;2023-07-30T05:21:34;19.80;;;4.90;;
52029;SDS011;38043;53.224;6.580;2023-07-30T05:24:00;21.55;;;4.60;;
52029;SDS011;38043;53.224;6.580;2023-07-30T05:26:25;19.88;;;4.68;;
52029;SDS011;38043;53.224;6.580;2023-07-30T05:28:51;21.45;;;5.88;;
52029;SDS011;38043;53.224;6.580;2023-07-30T05:31:17;18.05;;;4.50;;
52029;SDS011;38043;53.224;6.580;2023-07-30T05:33:42;22.30;;;5.13;;
52029;SDS011;38043;53.224;6.580;2023-07-30T05:36:08;26.45;;;4.28;;
52029;SDS011;38043;53.224;6.580;2023-07-30T05:38:34;21.50;;;4.85;;
52029;SDS011;38043;53.224;6.580;2023-07-30T05:40:59;20.08;;;5.25;;
52029;SDS011;38043;53.224;6.580;2023-07-30T05:43:25;17.35;;;4.40;;
52029;SDS011;38043;53.224;6.580;2023-07-30T05:45:51;19.90;;;3.88;;
52029;SDS011;38043;53.224;6.580;2023-07-30T05:48:17;18.05;;;4.45;;
52029;SDS011;38043;53.224;6.580;2023-07-30T05:50:42;16.65;;;3.80;;
52029;SDS011;38043;53.224;6.580;2023-07-30T05:53:08;18.63;;;4.25;;
52029;SDS011;38043;53.224;6.580;2023-07-30T05:55:34;23.52;;;4.60;;
52029;SDS011;38043;53.224;6.580;2023-07-30T05:57:59;17.73;;;4.07;;
52029;SDS011;38043;53.224;6.580;2023-07-30T06:00:25;19.45;;;4.68;;
52029;SDS011;38043;53.224;6.580;2023-07-30T06:02:51;21.27;;;5.10;;
52029;SDS011;38043;53.224;6.580;2023-07-30T06:05:16;20.88;;;4.57;;
52029;SDS011;38043;53.224;6.580;2023-07-30T06:07:42;19.88;;;4.30;;
52029;SDS011;38043;53.224;6.580;2023-07-30T06:10:08;17.70;;;3.63;;
52029;SDS011;38043;53.224;6.580;2023-07-30T06:12:33;16.00;;;4.20;;
52029;SDS011;38043;53.224;6.580;2023-07-30T06:14:59;22.42;;;4.57;;
52029;SDS011;38043;53.224;6.580;2023-07-30T06:17:25;19.17;;;4.10;;
52029;SDS011;38043;53.224;6.580;2023-07-30T06:19:50;21.73;;;4.63;;
52029;SDS011;38043;53.224;6.580;2023-07-30T06:22:19;20.35;;;4.03;;
52029;SDS011;38043;53.224;6.580;2023-07-30T06:24:45;20.35;;;4.22;;
52029;SDS011;38043;53.224;6.580;2023-07-30T06:27:10;16.75;;;3.45;;
52029;SDS011;38043;53.224;6.580;2023-07-30T06:29:37;15.23;;;3.33;;
52029;SDS011;38043;53.224;6.580;2023-07-30T06:32:03;13.20;;;3.45;;
52029;SDS011;38043;53.224;6.580;2023-07-30T06:34:29;16.25;;;4.07;;
52029;SDS011;38043;53.224;6.580;2023-07-30T06:36:54;13.93;;;3.47;;
52029;SDS011;38043;53.224;6.580;2023-07-30T06:39:20;14.43;;;3.53;;
52029;SDS011;38043;53.224;6.580;2023-07-30T06:41:46;16.00;;;3.45;;
52029;SDS011;38043;53.224;6.580;2023-07-30T06:44:12;14.68;;;3.58;;
52029;SDS011;38043;53.224;6.580;2023-07-30T06:46:38;13.70;;;3.88;;
52029;SDS011;38043;53.224;6.580;2023-07-30T06:49:03;17.48;;;4.20;;
52029;SDS011;38043;53.224;6.580;2023-07-30T06:51:29;20.27;;;4.13;;
52029;SDS011;38043;53.224;6.580;2023-07-30T06:53:55;19.50;;;4.47;;
52029;SDS011;38043;53.224;6.580;2023-07-30T06:56:21;16.00;;;4.18;;
52029;SDS011;38043;53.224;6.580;2023-07-30T06:58:47;19.60;;;4.45;;
52029;SDS011;38043;53.224;6.580;2023-07-30T07:01:12;15.63;;;4.05;;
52029;SDS011;38043;53.224;6.580;2023-07-30T07:03:38;16.85;;;4.30;;
52029;SDS011;38043;53.224;6.580;2023-07-30T07:06:04;13.70;;;3.90;;
52029;SDS011;38043;53.224;6.580;2023-07-30T07:08:30;15.52;;;4.82;;
52029;SDS011;38043;53.224;6.580;2023-07-30T07:10:55;16.83;;;3.80;;
52029;SDS011;38043;53.224;6.580;2023-07-30T07:13:21;14.30;;;3.90;;
52029;SDS011;38043;53.224;6.580;2023-07-30T07:15:47;13.40;;;3.80;;
52029;SDS011;38043;53.224;6.580;2023-07-30T07:18:12;20.25;;;3.97;;
52029;SDS011;38043;53.224;6.580;2023-07-30T07:20:38;12.98;;;3.72;;
52029;SDS011;38043;53.224;6.580;2023-07-30T07:23:04;13.38;;;3.63;;
52029;SDS011;38043;53.224;6.580;2023-07-30T07:25:29;14.90;;;3.75;;
52029;SDS011;38043;53.224;6.580;2023-07-30T07:27:55;16.48;;;3.20;;
52029;SDS011;38043;53.224;6.580;2023-07-30T07:30:21;14.13;;;3.83;;
52029;SDS011;38043;53.224;6.580;2023-07-30T07:32:47;13.40;;;3.15;;
52029;SDS011;38043;53.224;6.580;2023-07-30T07:35:16;18.10;;;3.80;;
52029;SDS011;38043;53.224;6.580;2023-07-30T07:37:43;14.77;;;3.38;;
52029;SDS011;38043;53.224;6.580;2023-07-30T07:40:09;14.77;;;3.72;;
52029;SDS011;38043;53.224;6.580;2023-07-30T07:42:35;14.90;;;2.90;;
52029;SDS011;38043;53.224;6.580;2023-07-30T07:45:01;9.88;;;2.78;;
52029;SDS011;38043;53.224;6.580;2023-07-30T07:47:26;14.13;;;3.35;;
52029;SDS011;38043;53.224;6.580;2023-07-30T07:49:52;15.50;;;3.45;;
52029;SDS011;38043;53.224;6.580;2023-07-30T07:52:17;17.33;;;3.35;;
52029;SDS011;38043;53.224;6.580;2023-07-30T07:54:44;11.20;;;2.65;;
52029;SDS011;38043;53.224;6.580;2023-07-30T07:57:10;14.18;;;2.88;;
52029;SDS011;38043;53.224;6.580;2023-07-30T07:59:35;16.20;;;2.95;;
52029;SDS011;38043;53.224;6.580;2023-07-30T08:02:01;9.80;;;2.85;;
52029;SDS011;38043;53.224;6.580;2023-07-30T08:04:27;8.77;;;2.50;;
52029;SDS011;38043;53.224;6.580;2023-07-30T08:06:53;12.90;;;2.92;;
52029;SDS011;38043;53.224;6.580;2023-07-30T08:09:19;10.57;;;2.90;;
52029;SDS011;38043;53.224;6.580;2023-07-30T08:11:44;12.80;;;3.13;;
52029;SDS011;38043;53.224;6.580;2023-07-30T08:14:10;13.45;;;3.33;;
52029;SDS011;38043;53.224;6.580;2023-07-30T08:16:35;12.75;;;2.90;;
52029;SDS011;38043;53.224;6.580;2023-07-30T08:19:02;11.55;;;2.90;;
52029;SDS011;38043;53.224;6.580;2023-07-30T08:21:28;10.43;;;2.75;;
52029;SDS011;38043;53.224;6.580;2023-07-30T08:23:53;12.40;;;2.92;;
52029;SDS011;38043;53.224;6.580;2023-07-30T08:26:22;12.23;;;2.90;;
52029;SDS011;38043;53.224;6.580;2023-07-30T08:28:47;12.20;;;2.60;;
52029;SDS011;38043;53.224;6.580;2023-07-30T08:31:13;13.70;;;2.92;;
52029;SDS011;38043;53.224;6.580;2023-07-30T08:33:41;10.70;;;2.80;;
52029;SDS011;38043;53.224;6.580;2023-07-30T08:36:07;11.77;;;2.67;;
52029;SDS011;38043;53.224;6.580;2023-07-30T08:38:33;12.25;;;2.38;;
52029;SDS011;38043;53.224;6.580;2023-07-30T08:40:58;14.07;;;2.85;;
52029;SDS011;38043;53.224;6.580;2023-07-30T08:43:27;13.20;;;2.30;;
52029;SDS011;38043;53.224;6.580;2023-07-30T08:45:53;12.30;;;3.08;;
52029;SDS011;38043;53.224;6.580;2023-07-30T08:48:19;11.45;;;2.75;;
52029;SDS011;38043;53.224;6.580;2023-07-30T08:50:44;14.27;;;2.60;;
52029;SDS011;38043;53.224;6.580;2023-07-30T08:53:12;17.60;;;3.28;;
52029;SDS011;38043;53.224;6.580;2023-07-30T08:55:38;15.40;;;2.80;;
52029;SDS011;38043;53.224;6.580;2023-07-30T08:58:08;10.73;;;2.47;;
52029;SDS011;38043;53.224;6.580;2023-07-30T09:00:36;12.18;;;2.53;;
52029;SDS011;38043;53.224;6.580;2023-07-30T09:03:04;17.90;;;2.55;;
52029;SDS011;38043;53.224;6.580;2023-07-30T09:05:30;10.07;;;2.53;;
52029;SDS011;38043;53.224;6.580;2023-07-30T09:07:56;11.00;;;2.63;;
52029;SDS011;38043;53.224;6.580;2023-07-30T09:10:22;8.15;;;2.60;;
52029;SDS011;38043;53.224;6.580;2023-07-30T09:12:54;10.35;;;2.78;;
52029;SDS011;38043;53.224;6.580;2023-07-30T09:15:28;13.45;;;2.53;;
52029;SDS011;38043;53.224;6.580;2023-07-30T09:17:58;13.93;;;2.92;;
52029;SDS011;38043;53.224;6.580;2023-07-30T09:20:24;10.10;;;2.57;;
52029;SDS011;38043;53.224;6.580;2023-07-30T09:22:51;13.55;;;3.00;;
52029;SDS011;38043;53.224;6.580;2023-07-30T09:25:17;14.25;;;2.60;;
52029;SDS011;38043;53.224;6.580;2023-07-30T09:27:52;9.93;;;2.53;;
52029;SDS011;38043;53.224;6.580;2023-07-30T09:30:22;15.40;;;2.40;;
52029;SDS011;38043;53.224;6.580;2023-07-30T09:32:52;13.07;;;2.60;;
52029;SDS011;38043;53.224;6.580;2023-07-30T09:35:22;22.35;;;3.15;;
52029;SDS011;38043;53.224;6.580;2023-07-30T09:37:58;11.18;;;3.28;;
52029;SDS011;38043;53.224;6.580;2023-07-30T09:40:33;6.15;;;1.98;;
52029;SDS011;38043;53.224;6.580;2023-07-30T09:43:01;9.20;;;2.00;;
52029;SDS011;38043;53.224;6.580;2023-07-30T09:45:28;9.25;;;2.03;;
52029;SDS011;38043;53.224;6.580;2023-07-30T09:47:54;7.45;;;2.10;;
52029;SDS011;38043;53.224;6.580;2023-07-30T09:50:23;7.35;;;2.22;;
52029;SDS011;38043;53.224;6.580;2023-07-30T09:52:49;8.23;;;1.98;;
52029;SDS011;38043;53.224;6.580;2023-07-30T09:55:15;10.63;;;2.22;;
52029;SDS011;38043;53.224;6.580;2023-07-30T09:57:43;8.00;;;2.33;;
52029;SDS011;38043;53.224;6.580;2023-07-30T10:00:09;6.97;;;2.00;;
52029;SDS011;38043;53.224;6.580;2023-07-30T10:02:39;8.02;;;2.35;;
52029;SDS011;38043;53.224;6.580;2023-07-30T10:05:08;5.65;;;1.50;;
52029;SDS011;38043;53.224;6.580;2023-07-30T10:07:40;8.75;;;2.10;;
52029;SDS011;38043;53.224;6.580;2023-07-30T10:10:12;6.95;;;1.67;;
52029;SDS011;38043;53.224;6.580;2023-07-30T10:12:38;6.45;;;2.00;;
52029;SDS011;38043;53.224;6.580;2023-07-30T10:15:06;7.55;;;2.13;;
52029;SDS011;38043;53.224;6.580;2023-07-30T10:17:33;8.25;;;2.20;;
52029;SDS011;38043;53.224;6.580;2023-07-30T10:20:17;7.00;;;2.17;;
52029;SDS011;38043;53.224;6.580;2023-07-30T10:22:51;7.57;;;2.05;;
52029;SDS011;38043;53.224;6.580;2023-07-30T10:25:30;7.10;;;2.17;;
52029;SDS011;38043;53.224;6.580;2023-07-30T10:30:58;7.28;;;1.80;;
52029;SDS011;38043;53.224;6.580;2023-07-30T10:36:32;6.35;;;2.03;;
52029;SDS011;38043;53.224;6.580;2023-07-30T10:41:48;9.82;;;2.15;;
52029;SDS011;38043;53.224;6.580;2023-07-30T10:44:27;6.40;;;1.98;;
52029;SDS011;38043;53.224;6.580;2023-07-30T10:46:56;6.70;;;2.38;;
52029;SDS011;38043;53.224;6.580;2023-07-30T10:49:43;8.10;;;2.35;;
52029;SDS011;38043;53.224;6.580;2023-07-30T10:52:09;8.38;;;2.40;;
52029;SDS011;38043;53.224;6.580;2023-07-30T10:54:35;7.20;;;2.40;;
52029;SDS011;38043;53.224;6.580;2023-07-30T10:57:05;11.73;;;2.95;;
52029;SDS011;38043;53.224;6.580;2023-07-30T10:59:34;6.30;;;2.22;;
52029;SDS011;38043;53.224;6.580;2023-07-30T11:02:01;16.25;;;2.78;;
52029;SDS011;38043;53.224;6.580;2023-07-30T11:04:27;12.82;;;3.22;;
52029;SDS011;38043;53.224;6.580;2023-07-30T11:06:53;10.05;;;2.20;;
52029;SDS011;38043;53.224;6.580;2023-07-30T11:09:23;7.80;;;2.45;;
52029;SDS011;38043;53.224;6.580;2023-07-30T11:11:50;9.40;;;1.90;;
52029;SDS011;38043;53.224;6.580;2023-07-30T11:14:17;14.75;;;2.95;;
52029;SDS011;38043;53.224;6.580;2023-07-30T11:17:04;9.77;;;2.72;;
52029;SDS011;38043;53.224;6.580;2023-07-30T11:19:30;7.45;;;2.10;;
52029;SDS011;38043;53.224;6.580;2023-07-30T11:21:59;10.80;;;2.30;;
52029;SDS011;38043;53.224;6.580;2023-07-30T11:24:36;15.10;;;3.30;;
52029;SDS011;38043;53.224;6.580;2023-07-30T11:27:02;9.50;;;2.10;;
52029;SDS011;38043;53.224;6.580;2023-07-30T11:29:28;8.93;;;2.22;;
52029;SDS011;38043;53.224;6.580;2023-07-30T11:31:57;15.48;;;3.03;;
52029;SDS011;38043;53.224;6.580;2023-07-30T11:34:24;9.90;;;2.65;;
52029;SDS011;38043;53.224;6.580;2023-07-30T11:36:51;12.60;;;2.55;;
52029;SDS011;38043;53.224;6.580;2023-07-30T11:39:17;11.10;;;2.25;;
52029;SDS011;38043;53.224;6.580;2023-07-30T11:41:43;11.13;;;2.42;;
52029;SDS011;38043;53.224;6.580;2023-07-30T11:44:28;8.30;;;2.08;;
52029;SDS011;38043;53.224;6.580;2023-07-30T11:46:58;6.00;;;2.28;;
52029;SDS011;38043;53.224;6.580;2023-07-30T11:49:24;7.25;;;1.95;;
52029;SDS011;38043;53.224;6.580;2023-07-30T11:51:49;11.05;;;2.70;;
52029;SDS011;38043;53.224;6.580;2023-07-30T11:54:22;10.67;;;2.27;;
52029;SDS011;38043;53.224;6.580;2023-07-30T11:56:53;7.22;;;1.90;;
52029;SDS011;38043;53.224;6.580;2023-07-30T11:59:22;10.57;;;2.72;;
52029;SDS011;38043;53.224;6.580;2023-07-30T12:01:48;12.45;;;2.25;;
52029;SDS011;38043;53.224;6.580;2023-07-30T12:04:13;7.93;;;2.17;;
52029;SDS011;38043;53.224;6.580;2023-07-30T12:06:40;8.35;;;2.25;;
52029;SDS011;38043;53.224;6.580;2023-07-30T12:09:09;11.77;;;2.60;;
52029;SDS011;38043;53.224;6.580;2023-07-30T12:11:52;12.15;;;2.47;;
52029;SDS011;38043;53.224;6.580;2023-07-30T12:14:22;12.07;;;2.08;;
52029;SDS011;38043;53.224;6.580;2023-07-30T12:17:09;13.55;;;3.33;;
52029;SDS011;38043;53.224;6.580;2023-07-30T12:19:34;8.95;;;2.20;;
52029;SDS011;38043;53.224;6.580;2023-07-30T12:22:03;11.88;;;2.30;;
52029;SDS011;38043;53.224;6.580;2023-07-30T12:24:28;9.32;;;2.55;;
52029;SDS011;38043;53.224;6.580;2023-07-30T12:26:54;13.52;;;2.85;;
52029;SDS011;38043;53.224;6.580;2023-07-30T12:29:20;8.05;;;2.15;;
52029;SDS011;38043;53.224;6.580;2023-07-30T12:31:46;8.25;;;2.17;;
52029;SDS011;38043;53.224;6.580;2023-07-30T12:34:12;5.97;;;1.77;;
52029;SDS011;38043;53.224;6.580;2023-07-30T12:36:38;5.57;;;1.60;;
52029;SDS011;38043;53.224;6.580;2023-07-30T12:39:03;7.13;;;1.80;;
52029;SDS011;38043;53.224;6.580;2023-07-30T12:41:29;8.35;;;2.05;;
52029;SDS011;38043;53.224;6.580;2023-07-30T12:43:55;12.13;;;1.73;;
52029;SDS011;38043;53.224;6.580;2023-07-30T12:46:24;8.55;;;2.10;;
52029;SDS011;38043;53.224;6.580;2023-07-30T12:48:54;8.55;;;1.85;;
52029;SDS011;38043;53.224;6.580;2023-07-30T12:51:21;11.55;;;2.25;;
52029;SDS011;38043;53.224;6.580;2023-07-30T12:53:47;7.40;;;2.20;;
52029;SDS011;38043;53.224;6.580;2023-07-30T12:56:13;8.77;;;2.35;;
52029;SDS011;38043;53.224;6.580;2023-07-30T12:58:40;8.77;;;2.58;;
52029;SDS011;38043;53.224;6.580;2023-07-30T13:01:06;7.63;;;2.38;;
52029;SDS011;38043;53.224;6.580;2023-07-30T13:03:31;9.98;;;2.60;;
52029;SDS011;38043;53.224;6.580;2023-07-30T13:05:57;9.68;;;2.58;;
52029;SDS011;38043;53.224;6.580;2023-07-30T13:08:23;10.82;;;2.33;;
52029;SDS011;38043;53.224;6.580;2023-07-30T13:10:49;9.98;;;2.03;;
52029;SDS011;38043;53.224;6.580;2023-07-30T13:13:14;5.90;;;1.80;;
52029;SDS011;38043;53.224;6.580;2023-07-30T13:15:40;10.23;;;2.08;;
52029;SDS011;38043;53.224;6.580;2023-07-30T13:18:06;4.53;;;1.33;;
52029;SDS011;38043;53.224;6.580;2023-07-30T13:20:31;8.70;;;1.73;;
52029;SDS011;38043;53.224;6.580;2023-07-30T13:22:57;6.15;;;1.75;;
52029;SDS011;38043;53.224;6.580;2023-07-30T13:25:23;9.77;;;2.05;;
52029;SDS011;38043;53.224;6.580;2023-07-30T13:27:49;13.07;;;2.10;;
52029;SDS011;38043;53.224;6.580;2023-07-30T13:30:15;8.70;;;1.90;;
52029;SDS011;38043;53.224;6.580;2023-07-30T13:32:41;11.18;;;2.17;;
52029;SDS011;38043;53.224;6.580;2023-07-30T13:35:07;6.47;;;1.77;;
52029;SDS011;38043;53.224;6.580;2023-07-30T13:37:32;8.60;;;1.85;;
52029;SDS011;38043;53.224;6.580;2023-07-30T13:39:58;8.68;;;2.22;;
52029;SDS011;38043;53.224;6.580;2023-07-30T13:42:24;5.55;;;2.20;;
52029;SDS011;38043;53.224;6.580;2023-07-30T13:44:49;9.40;;;2.10;;
52029;SDS011;38043;53.224;6.580;2023-07-30T13:47:16;6.65;;;2.03;;
52029;SDS011;38043;53.224;6.580;2023-07-30T13:49:41;8.00;;;2.10;;
52029;SDS011;38043;53.224;6.580;2023-07-30T13:52:07;3.83;;;1.48;;
52029;SDS011;38043;53.224;6.580;2023-07-30T13:54:33;6.25;;;2.00;;
52029;SDS011;38043;53.224;6.580;2023-07-30T13:56:58;6.25;;;2.13;;
52029;SDS011;38043;53.224;6.580;2023-07-30T13:59:26;6.57;;;2.28;;
52029;SDS011;38043;53.224;6.580;2023-07-30T14:01:52;8.75;;;2.33;;
52029;SDS011;38043;53.224;6.580;2023-07-30T14:04:18;7.93;;;1.73;;
52029;SDS011;38043;53.224;6.580;2023-07-30T14:06:43;10.52;;;2.20;;
52029;SDS011;38043;53.224;6.580;2023-07-30T14:09:10;8.18;;;2.08;;
52029;SDS011;38043;53.224;6.580;2023-07-30T14:11:35;6.32;;;1.92;;
52029;SDS011;38043;53.224;6.580;2023-07-30T14:14:02;7.07;;;1.65;;
52029;SDS011;38043;53.224;6.580;2023-07-30T14:16:28;10.25;;;1.60;;
52029;SDS011;38043;53.224;6.580;2023-07-30T14:18:54;11.00;;;1.90;;
52029;SDS011;38043;53.224;6.580;2023-07-30T14:21:22;6.75;;;1.83;;
52029;SDS011;38043;53.224;6.580;2023-07-30T14:23:48;5.32;;;1.60;;
52029;SDS011;38043;53.224;6.580;2023-07-30T14:26:14;6.90;;;1.80;;
52029;SDS011;38043;53.224;6.580;2023-07-30T14:28:40;6.95;;;1.60;;
52029;SDS011;38043;53.224;6.580;2023-07-30T14:31:06;8.35;;;2.03;;
52029;SDS011;38043;53.224;6.580;2023-07-30T14:33:32;9.20;;;1.73;;
52029;SDS011;38043;53.224;6.580;2023-07-30T14:35:58;9.57;;;2.40;;
52029;SDS011;38043;53.224;6.580;2023-07-30T14:38:23;9.90;;;2.70;;
52029;SDS011;38043;53.224;6.580;2023-07-30T14:40:49;8.40;;;1.70;;
52029;SDS011;38043;53.224;6.580;2023-07-30T14:43:15;5.38;;;1.73;;
52029;SDS011;38043;53.224;6.580;2023-07-30T14:45:40;9.93;;;2.20;;
52029;SDS011;38043;53.224;6.580;2023-07-30T14:48:06;11.65;;;2.53;;